createdAt,value
2024-03-04T00:02:10.728Z,62.10
2024-03-04T00:04:40.664Z,61.90
2024-03-04T00:07:09.108Z,60.80
2024-03-04T00:09:37.612Z,60.70
2024-03-04T00:12:06.702Z,61.40
2024-03-04T00:14:35.608Z,61.00
2024-03-04T00:17:03.772Z,61.40
2024-03-04T00:19:32.271Z,61.80
2024-03-04T00:22:02.475Z,62.20
2024-03-04T00:24:30.615Z,62.00
2024-03-04T00:26:58.897Z,61.30
2024-03-04T00:29:28.532Z,60.10
2024-03-04T00:31:56.692Z,59.70
2024-03-04T00:34:24.890Z,59.70
2024-03-04T00:36:53.547Z,58.50
2024-03-04T00:39:23.329Z,58.50
2024-03-04T00:41:52.091Z,59.00
2024-03-04T00:44:21.382Z,59.60
2024-03-04T00:46:49.420Z,60.20
2024-03-04T00:49:17.498Z,59.40
2024-03-04T00:51:46.984Z,59.10
2024-03-04T00:54:15.423Z,59.30
2024-03-04T00:56:45.021Z,60.80
2024-03-04T00:59:13.425Z,60.40
2024-03-04T01:01:41.668Z,60.20
2024-03-04T01:04:09.884Z,59.40
2024-03-04T01:06:39.690Z,59.50
2024-03-04T01:09:12.057Z,60.50
2024-03-04T01:11:40.233Z,61.00
2024-03-04T01:14:09.862Z,61.20
2024-03-04T01:16:38.229Z,61.50
2024-03-04T01:19:07.065Z,61.70
2024-03-04T01:21:35.345Z,62.30
2024-03-04T01:24:03.939Z,62.30
2024-03-04T01:26:32.553Z,62.20
2024-03-04T01:29:00.716Z,61.80
2024-03-04T01:31:30.276Z,62.80
2024-03-04T01:33:58.793Z,62.30
2024-03-04T01:36:26.955Z,61.50
2024-03-04T01:38:55.148Z,60.60
2024-03-04T01:41:23.501Z,59.10
2024-03-04T01:43:51.791Z,57.10
2024-03-04T01:46:20.291Z,55.70
2024-03-04T01:48:50.110Z,54.60
2024-03-04T01:51:20.741Z,53.50
2024-03-04T01:53:49.194Z,52.80
2024-03-04T01:56:17.554Z,52.20
2024-03-04T01:58:49.553Z,52.00
2024-03-04T02:01:18.216Z,51.70
2024-03-04T02:03:47.332Z,51.90
2024-03-04T02:06:18.128Z,51.80
2024-03-04T02:08:46.495Z,51.70
2024-03-04T02:11:14.704Z,50.50
2024-03-04T02:13:42.917Z,50.10
2024-03-04T02:16:11.080Z,50.00
2024-03-04T02:18:39.418Z,50.00
2024-03-04T02:21:09.247Z,49.90
2024-03-04T02:23:38.805Z,50.30
2024-03-04T02:26:07.185Z,50.50
2024-03-04T02:28:35.421Z,50.60
2024-03-04T02:31:06.962Z,50.70
2024-03-04T02:33:35.571Z,51.10
2024-03-04T02:36:04.330Z,51.20
2024-03-04T02:38:33.603Z,51.40
2024-03-04T02:41:05.550Z,52.00
2024-03-04T02:43:34.049Z,52.40
2024-03-04T02:46:02.317Z,52.60
2024-03-04T02:48:30.529Z,52.50
2024-03-04T02:50:58.752Z,52.60
2024-03-04T02:53:27.315Z,52.90
2024-03-04T02:55:55.359Z,54.40
2024-03-04T02:58:25.027Z,55.20
2024-03-04T03:00:53.292Z,55.30
2024-03-04T03:03:23.818Z,54.90
2024-03-04T03:05:52.048Z,54.70
2024-03-04T03:08:20.400Z,54.70
2024-03-04T03:10:48.985Z,53.90
2024-03-04T03:13:17.333Z,53.70
2024-03-04T03:15:46.293Z,53.70
2024-03-04T03:18:15.203Z,54.00
2024-03-04T03:20:42.530Z,54.20
2024-03-04T03:23:10.739Z,53.70
2024-03-04T03:25:39.285Z,54.20
2024-03-04T03:28:07.865Z,54.20
2024-03-04T03:30:36.434Z,54.50
2024-03-04T03:33:06.483Z,54.10
2024-03-04T03:35:34.733Z,53.90
2024-03-04T03:38:03.239Z,52.50
2024-03-04T03:40:32.468Z,51.90
2024-03-04T03:43:00.800Z,51.60
2024-03-04T03:45:29.092Z,50.80
2024-03-04T03:47:57.259Z,50.10
2024-03-04T03:50:26.769Z,49.40
2024-03-04T03:52:55.150Z,49.10
2024-03-04T03:55:23.353Z,49.20
2024-03-04T03:57:58.014Z,49.10
2024-03-04T04:00:29.854Z,49.20
2024-03-04T04:02:59.852Z,48.80
2024-03-04T04:05:29.400Z,48.30
2024-03-04T04:07:59.275Z,48.00
2024-03-04T04:10:27.602Z,47.90
2024-03-04T04:12:55.908Z,47.60
2024-03-04T04:15:26.766Z,47.70
2024-03-04T04:17:57.319Z,47.90
2024-03-04T04:20:25.654Z,48.20
2024-03-04T04:22:55.815Z,47.80
2024-03-04T04:25:24.154Z,47.60
2024-03-04T04:27:52.457Z,47.40
2024-03-04T04:30:21.883Z,47.60
2024-03-04T04:32:50.182Z,47.30
2024-03-04T04:35:18.400Z,47.00
2024-03-04T04:37:47.262Z,47.10
2024-03-04T04:40:21.258Z,47.40
2024-03-04T04:42:49.546Z,48.00
2024-03-04T04:45:18.918Z,48.60
2024-03-04T04:47:47.303Z,48.20
2024-03-04T04:50:15.709Z,47.80
2024-03-04T04:52:43.867Z,47.30
2024-03-04T04:55:15.028Z,47.10
2024-03-04T04:57:46.474Z,47.00
2024-03-04T05:00:15.907Z,47.10
2024-03-04T05:02:44.151Z,47.60
2024-03-04T05:05:12.385Z,47.90
2024-03-04T05:07:40.923Z,48.00
2024-03-04T05:10:10.642Z,47.80
2024-03-04T05:12:38.981Z,48.30
2024-03-04T05:15:09.802Z,48.50
2024-03-04T05:17:39.080Z,48.30
2024-03-04T05:20:08.718Z,48.30
2024-03-04T05:22:37.289Z,48.10
2024-03-04T05:25:07.525Z,48.30
2024-03-04T05:27:35.823Z,48.90
2024-03-04T05:30:04.093Z,48.90
2024-03-04T05:32:33.550Z,49.20
2024-03-04T05:35:01.850Z,48.90
2024-03-04T05:37:30.409Z,49.00
2024-03-04T05:39:58.735Z,48.60
2024-03-04T05:42:26.855Z,48.80
2024-03-04T05:44:55.279Z,49.00
2024-03-04T05:47:23.593Z,48.10
2024-03-04T05:49:53.358Z,48.00
2024-03-04T05:52:22.032Z,48.50
2024-03-04T05:54:50.143Z,48.50
2024-03-04T05:57:18.315Z,48.20
2024-03-04T05:59:46.440Z,47.50
2024-03-04T06:02:15.587Z,47.10
2024-03-04T06:04:44.030Z,47.40
2024-03-04T06:07:13.587Z,47.90
2024-03-04T06:09:41.912Z,47.60
2024-03-04T06:12:10.515Z,47.10
2024-03-04T06:14:38.817Z,47.00
2024-03-04T06:17:07.956Z,47.00
2024-03-04T06:19:36.074Z,47.30
2024-03-04T06:22:11.852Z,47.00
2024-03-04T06:24:42.942Z,47.00
2024-03-04T06:27:11.162Z,46.90
2024-03-04T06:29:39.303Z,46.30
2024-03-04T06:32:08.460Z,46.20
2024-03-04T06:34:37.094Z,46.80
2024-03-04T06:37:05.454Z,46.90
2024-03-04T06:39:34.989Z,46.60
2024-03-04T06:42:04.861Z,46.20
2024-03-04T06:44:33.094Z,46.40
2024-03-04T06:47:01.304Z,46.50
2024-03-04T06:49:29.539Z,46.70
2024-03-04T06:51:58.011Z,47.00
2024-03-04T06:54:26.612Z,46.90
2024-03-04T06:56:54.722Z,46.70
2024-03-04T06:59:24.222Z,46.90
2024-03-04T07:01:52.668Z,46.90
2024-03-04T07:04:21.184Z,46.90
2024-03-04T07:06:49.458Z,47.00
2024-03-04T07:09:17.560Z,47.20
2024-03-04T07:11:45.699Z,47.40
2024-03-04T07:14:13.838Z,46.90
2024-03-04T07:16:43.355Z,47.60
2024-03-04T07:19:11.645Z,48.30
2024-03-04T07:21:39.727Z,48.20
2024-03-04T07:24:08.681Z,49.40
2024-03-04T07:26:37.186Z,49.70
2024-03-04T07:29:08.349Z,50.10
2024-03-04T07:31:41.629Z,50.90
2024-03-04T07:34:11.680Z,50.80
2024-03-04T07:36:39.924Z,51.00
2024-03-04T07:39:09.054Z,51.40
2024-03-04T07:41:37.305Z,51.20
2024-03-04T07:44:06.027Z,50.90
2024-03-04T07:46:34.199Z,51.00
2024-03-04T07:49:02.608Z,53.10
2024-03-04T07:51:32.164Z,53.70
2024-03-04T07:54:00.373Z,55.60
2024-03-04T07:56:28.549Z,57.30
2024-03-04T07:58:57.017Z,57.90
2024-03-04T08:01:25.282Z,56.40
2024-03-04T08:03:53.592Z,57.10
2024-03-04T08:06:22.259Z,59.30
2024-03-04T08:08:52.137Z,58.90
2024-03-04T08:11:20.626Z,57.10
2024-03-04T08:13:48.978Z,58.80
2024-03-04T08:16:17.520Z,61.00
2024-03-04T08:18:45.836Z,61.40
2024-03-04T08:21:16.831Z,63.20
2024-03-04T08:23:45.245Z,63.30
2024-03-04T08:26:15.148Z,64.30
2024-03-04T08:28:44.608Z,67.50
2024-03-04T08:31:13.459Z,68.40
2024-03-04T08:33:41.913Z,69.70
2024-03-04T08:36:10.395Z,70.80
2024-03-04T08:38:39.867Z,70.50
2024-03-04T08:41:08.046Z,69.30
2024-03-04T08:43:37.640Z,68.60
2024-03-04T08:46:06.436Z,70.00
2024-03-04T08:48:34.808Z,70.00
2024-03-04T08:51:03.212Z,70.10
2024-03-04T08:53:31.695Z,73.00
2024-03-04T08:56:00.394Z,72.50
2024-03-04T08:58:28.734Z,72.40
2024-03-04T09:01:01.664Z,71.20
2024-03-04T09:03:30.545Z,71.10
2024-03-04T09:05:58.932Z,71.30
2024-03-04T09:08:27.256Z,71.60
2024-03-04T09:10:55.921Z,71.30
2024-03-04T09:13:25.040Z,72.40
2024-03-04T09:15:53.670Z,70.50
2024-03-04T09:18:23.487Z,71.30
2024-03-04T09:20:51.757Z,71.90
2024-03-04T09:23:20.404Z,70.60
2024-03-04T09:25:48.704Z,71.20
2024-03-04T09:28:17.113Z,71.00
2024-03-04T09:30:45.413Z,73.50
2024-03-04T09:33:13.742Z,75.80
2024-03-04T09:35:43.601Z,75.80
2024-03-04T09:38:12.572Z,77.60
2024-03-04T09:40:41.307Z,77.70
2024-03-04T09:43:12.844Z,77.90
2024-03-04T09:45:42.706Z,77.50
2024-03-04T09:48:14.522Z,77.60
2024-03-04T09:50:44.674Z,77.80
2024-03-04T09:53:16.890Z,77.70
2024-03-04T09:55:45.293Z,77.80
2024-03-04T09:58:14.775Z,77.70
2024-03-04T10:00:44.146Z,77.50
2024-03-04T10:03:13.080Z,77.90
2024-03-04T10:05:43.732Z,77.80
2024-03-04T10:08:13.455Z,77.50
2024-03-04T10:10:41.912Z,77.40
2024-03-04T10:13:11.893Z,77.10
2024-03-04T10:15:41.928Z,77.10
2024-03-04T10:18:14.517Z,77.40
2024-03-04T10:20:42.940Z,77.50
2024-03-04T10:23:13.670Z,77.60
2024-03-04T10:25:42.639Z,77.40
2024-03-04T10:28:13.977Z,77.70
2024-03-04T10:30:42.518Z,77.40
2024-03-04T10:33:11.217Z,77.80
2024-03-04T10:35:39.457Z,77.70
2024-03-04T10:38:08.923Z,77.60
2024-03-04T10:40:39.578Z,77.60
2024-03-04T10:43:09.396Z,77.70
2024-03-04T10:45:38.520Z,77.60
2024-03-04T10:48:09.418Z,77.70
2024-03-04T10:50:37.927Z,77.60
2024-03-04T10:53:06.618Z,77.60
2024-03-04T10:55:35.361Z,77.30
2024-03-04T10:58:06.155Z,77.70
2024-03-04T11:00:35.127Z,77.80
2024-03-04T11:03:14.039Z,77.90
2024-03-04T11:05:45.183Z,77.70
2024-03-04T11:08:17.174Z,77.70
2024-03-04T11:10:50.368Z,77.70
2024-03-04T11:13:25.750Z,77.80
2024-03-04T11:15:59.716Z,77.60
2024-03-04T11:18:38.856Z,77.70
2024-03-04T11:21:07.625Z,77.50
2024-03-04T11:23:36.518Z,77.20
2024-03-04T11:26:05.724Z,77.00
2024-03-04T11:28:36.354Z,77.20
2024-03-04T11:31:10.943Z,76.80
2024-03-04T11:33:41.879Z,76.90
2024-03-04T11:36:11.090Z,76.40
2024-03-04T11:38:44.050Z,76.10
2024-03-04T11:41:12.783Z,76.40
2024-03-04T11:43:50.392Z,76.70
2024-03-04T11:46:21.360Z,76.90
2024-03-04T11:48:49.580Z,76.90
2024-03-04T11:51:45.718Z,76.90
2024-03-04T11:54:13.796Z,77.10
2024-03-04T11:56:42.523Z,77.10
2024-03-04T11:59:15.086Z,77.20
2024-03-04T12:01:44.440Z,77.40
2024-03-04T12:04:12.714Z,77.50
2024-03-04T12:06:41.908Z,77.40
2024-03-04T12:09:28.859Z,77.40
2024-03-04T12:11:58.447Z,77.60
2024-03-04T12:14:28.043Z,77.30
2024-03-04T12:16:56.232Z,77.40
2024-03-04T12:19:25.193Z,77.30
2024-03-04T12:21:54.588Z,77.20
2024-03-04T12:24:24.432Z,77.30
2024-03-04T12:26:55.955Z,77.30
2024-03-04T12:29:25.555Z,77.40
2024-03-04T12:31:56.093Z,77.40
2024-03-04T12:34:24.836Z,77.40
2024-03-04T12:36:53.574Z,77.30
2024-03-04T12:39:21.879Z,77.30
2024-03-04T12:41:50.565Z,77.50
2024-03-04T12:44:23.117Z,77.50
2024-03-04T12:46:53.960Z,77.70
2024-03-04T12:49:23.508Z,77.70
2024-03-04T12:51:52.151Z,77.80
2024-03-04T12:54:27.231Z,77.70
2024-03-04T12:56:55.885Z,77.70
2024-03-04T12:59:24.144Z,77.60
2024-03-04T13:01:52.409Z,77.80
2024-03-04T13:04:20.551Z,77.70
2024-03-04T13:06:50.612Z,77.70
2024-03-04T13:09:18.892Z,77.70
2024-03-04T13:11:47.552Z,77.40
2024-03-04T13:14:16.132Z,77.20
2024-03-04T13:16:44.492Z,77.40
2024-03-04T13:19:13.801Z,77.30
2024-03-04T13:21:41.972Z,77.40
2024-03-04T13:24:11.683Z,77.40
2024-03-04T13:26:41.766Z,77.40
2024-03-04T13:29:11.725Z,77.30
2024-03-04T13:31:40.233Z,77.40
2024-03-04T13:34:08.546Z,77.50
2024-03-04T13:36:36.828Z,77.50
2024-03-04T13:39:05.211Z,77.60
2024-03-04T13:41:35.050Z,77.60
2024-03-04T13:44:03.577Z,77.70
2024-03-04T13:46:32.069Z,77.70
2024-03-04T13:49:00.474Z,77.70
2024-03-04T13:51:28.679Z,77.80
2024-03-04T13:53:57.039Z,77.90
2024-03-04T13:56:25.217Z,77.70
2024-03-04T13:58:55.048Z,77.70
2024-03-04T14:01:23.649Z,77.80
2024-03-04T14:03:52.112Z,77.90
2024-03-04T14:06:20.780Z,77.90
2024-03-04T14:08:49.049Z,77.80
2024-03-04T14:11:17.694Z,77.80
2024-03-04T14:13:46.061Z,77.90
2024-03-04T14:16:16.193Z,78.00
2024-03-04T14:18:44.618Z,77.80
2024-03-04T14:21:13.251Z,77.50
2024-03-04T14:23:41.843Z,77.90
2024-03-04T14:26:11.752Z,77.90
2024-03-04T14:28:40.324Z,77.80
2024-03-04T14:31:09.039Z,77.90
2024-03-04T14:33:39.206Z,77.90
2024-03-04T14:36:07.845Z,77.90
2024-03-04T14:38:37.189Z,77.70
2024-03-04T14:41:05.779Z,77.80
2024-03-04T14:43:34.874Z,77.90
2024-03-04T14:46:03.012Z,77.90
2024-03-04T14:48:31.743Z,77.90
2024-03-04T14:51:01.417Z,77.90
2024-03-04T14:53:33.235Z,78.00
2024-03-04T14:56:03.036Z,77.90
2024-03-04T14:58:31.277Z,77.90
2024-03-04T15:00:59.998Z,77.90
2024-03-04T15:03:29.317Z,77.90
2024-03-04T15:05:58.244Z,78.00
2024-03-04T15:08:27.722Z,77.90
2024-03-04T15:10:59.347Z,77.80
2024-03-04T15:13:29.464Z,77.80
2024-03-04T15:15:57.860Z,77.80
2024-03-04T15:18:26.127Z,77.80
2024-03-04T15:20:54.614Z,77.80
2024-03-04T15:23:23.127Z,77.70
2024-03-04T15:25:53.058Z,77.60
2024-03-04T15:28:21.296Z,77.60
2024-03-04T15:30:49.666Z,77.80
2024-03-04T15:33:18.543Z,77.50
2024-03-04T15:35:48.160Z,77.60
2024-03-04T15:38:17.985Z,77.50
2024-03-04T15:40:47.021Z,77.60
2024-03-04T15:43:17.112Z,77.40
2024-03-04T15:45:46.473Z,77.40
2024-03-04T15:48:15.160Z,77.20
2024-03-04T15:50:43.813Z,77.00
2024-03-04T15:53:12.159Z,77.00
2024-03-04T15:55:41.294Z,76.80
2024-03-04T15:58:10.796Z,76.60
2024-03-04T16:00:41.331Z,76.20
2024-03-04T16:03:09.875Z,76.20
2024-03-04T16:05:38.517Z,76.30
2024-03-04T16:08:10.654Z,76.50
2024-03-04T16:10:39.394Z,76.10
2024-03-04T16:13:07.898Z,75.60
2024-03-04T16:15:41.706Z,75.40
2024-03-04T16:18:19.130Z,75.00
2024-03-04T16:20:47.484Z,74.90
2024-03-04T16:23:16.354Z,74.70
2024-03-04T16:25:44.938Z,74.20
2024-03-04T16:28:13.343Z,74.00
2024-03-04T16:30:42.027Z,73.50
2024-03-04T16:33:10.665Z,72.90
2024-03-04T16:35:40.453Z,72.60
2024-03-04T16:38:10.067Z,72.30
2024-03-04T16:40:38.636Z,72.10
2024-03-04T16:43:07.621Z,72.30
2024-03-04T16:45:36.859Z,71.40
2024-03-04T16:48:05.555Z,71.70
2024-03-04T16:50:33.876Z,71.10
2024-03-04T16:53:03.733Z,71.30
2024-03-04T16:55:34.782Z,71.20
2024-03-04T16:58:04.664Z,70.80
2024-03-04T17:00:32.789Z,70.50
2024-03-04T17:03:02.942Z,69.50
2024-03-04T17:05:31.638Z,68.70
2024-03-04T17:07:59.968Z,68.10
2024-03-04T17:10:29.864Z,67.40
2024-03-04T17:12:59.034Z,67.20
2024-03-04T17:15:27.773Z,66.60
2024-03-04T17:17:56.165Z,67.00
2024-03-04T17:20:24.600Z,67.00
2024-03-04T17:22:53.033Z,66.70
2024-03-04T17:25:22.144Z,67.00
2024-03-04T17:27:52.152Z,67.40
2024-03-04T17:30:21.122Z,67.30
2024-03-04T17:32:49.715Z,67.50
2024-03-04T17:35:18.331Z,67.70
2024-03-04T17:37:46.988Z,67.30
2024-03-04T17:40:15.408Z,67.60
2024-03-04T17:42:44.181Z,67.20
2024-03-04T17:45:14.916Z,66.80
2024-03-04T17:47:43.322Z,66.80
2024-03-04T17:50:13.508Z,67.70
2024-03-04T17:52:43.581Z,67.60
2024-03-04T17:55:12.671Z,67.70
2024-03-04T17:57:41.151Z,68.20
2024-03-04T18:00:11.066Z,68.50
2024-03-04T18:02:41.255Z,69.30
2024-03-04T18:05:13.089Z,69.30
2024-03-04T18:07:41.898Z,69.50
2024-03-04T18:10:11.153Z,69.40
2024-03-04T18:12:39.553Z,69.60
2024-03-04T18:15:08.963Z,69.00
2024-03-04T18:17:37.404Z,68.90
2024-03-04T18:20:08.997Z,68.80
2024-03-04T18:22:37.415Z,68.30
2024-03-04T18:25:07.433Z,68.70
2024-03-04T18:27:35.708Z,69.00
2024-03-04T18:30:05.295Z,70.00
2024-03-04T18:32:33.784Z,70.10
2024-03-04T18:35:02.308Z,70.50
2024-03-04T18:37:32.350Z,70.70
2024-03-04T18:40:00.900Z,71.10
2024-03-04T18:42:29.361Z,71.00
2024-03-04T18:44:57.754Z,71.10
2024-03-04T18:47:26.226Z,71.00
2024-03-04T18:49:54.833Z,71.30
2024-03-04T18:52:25.616Z,71.30
2024-03-04T18:54:56.339Z,71.30
2024-03-04T18:57:25.319Z,71.30
2024-03-04T18:59:53.806Z,71.40
2024-03-04T19:02:26.845Z,71.30
2024-03-04T19:04:55.386Z,70.80
2024-03-04T19:07:24.230Z,70.60
2024-03-04T19:09:52.738Z,70.40
2024-03-04T19:12:27.716Z,70.50
2024-03-04T19:14:56.485Z,70.50
2024-03-04T19:17:25.326Z,70.00
2024-03-04T19:19:54.008Z,69.00
2024-03-04T19:22:22.893Z,68.00
2024-03-04T19:24:52.351Z,67.50
2024-03-04T19:27:24.790Z,67.60
2024-03-04T19:29:53.534Z,67.70
2024-03-04T19:32:22.152Z,67.50
2024-03-04T19:34:50.981Z,67.60
2024-03-04T19:37:19.755Z,68.10
2024-03-04T19:39:48.479Z,68.80
2024-03-04T19:42:22.095Z,69.30
2024-03-04T19:44:52.171Z,69.20
2024-03-04T19:47:21.078Z,69.80
2024-03-04T19:49:50.133Z,70.30
2024-03-04T19:52:18.984Z,70.40
2024-03-04T19:54:48.536Z,70.40
2024-03-04T19:57:20.635Z,70.60
2024-03-04T19:59:49.824Z,70.60
2024-03-04T20:02:20.135Z,70.50
2024-03-04T20:04:49.048Z,70.40
2024-03-04T20:07:18.885Z,70.40
2024-03-04T20:09:47.909Z,70.50
2024-03-04T20:12:16.541Z,70.30
2024-03-04T20:14:45.339Z,70.60
2024-03-04T20:17:14.184Z,70.30
2024-03-04T20:19:44.304Z,70.50
2024-03-04T20:22:12.843Z,70.70
2024-03-04T20:24:42.792Z,71.20
2024-03-04T20:27:11.325Z,70.70
2024-03-04T20:29:40.174Z,70.40
2024-03-04T20:32:09.103Z,69.70
2024-03-04T20:34:37.848Z,69.40
2024-03-04T20:37:08.312Z,69.20
2024-03-04T20:39:37.245Z,69.30
2024-03-04T20:42:06.841Z,69.10
2024-03-04T20:44:35.775Z,68.80
2024-03-04T20:47:05.460Z,68.30
2024-03-04T20:49:34.931Z,68.10
2024-03-04T20:52:04.148Z,68.30
2024-03-04T20:54:34.312Z,68.70
2024-03-04T20:57:03.132Z,68.40
2024-03-04T20:59:32.102Z,68.30
2024-03-04T21:02:00.727Z,67.60
2024-03-04T21:04:29.208Z,66.80
2024-03-04T21:06:58.087Z,65.60
2024-03-04T21:09:26.740Z,65.60
2024-03-04T21:11:56.993Z,66.10
2024-03-04T21:14:25.664Z,66.30
2024-03-04T21:16:54.388Z,66.10
2024-03-04T21:19:22.996Z,66.80
2024-03-04T21:21:51.528Z,66.90
2024-03-04T21:24:20.346Z,67.40
2024-03-04T21:26:49.034Z,66.60
2024-03-04T21:29:19.519Z,66.40
2024-03-04T21:31:48.043Z,65.40
2024-03-04T21:34:17.041Z,64.80
2024-03-04T21:36:45.901Z,63.30
2024-03-04T21:39:15.402Z,63.20
2024-03-04T21:41:44.383Z,63.40
2024-03-04T21:44:13.469Z,63.20
2024-03-04T21:46:46.202Z,63.40
2024-03-04T21:49:16.856Z,63.20
2024-03-04T21:51:46.085Z,63.10
2024-03-04T21:54:15.187Z,63.80
2024-03-04T21:56:45.107Z,63.70
2024-03-04T21:59:14.447Z,63.50
2024-03-04T22:01:44.596Z,63.40
2024-03-04T22:04:13.537Z,63.90
2024-03-04T22:06:42.285Z,63.90
2024-03-04T22:09:11.071Z,64.20
2024-03-04T22:11:46.498Z,64.10
2024-03-04T22:14:15.713Z,64.20
2024-03-04T22:16:47.051Z,65.40
2024-03-04T22:19:15.761Z,66.30
2024-03-04T22:21:44.245Z,65.60
2024-03-04T22:24:12.837Z,65.60
2024-03-04T22:26:41.173Z,65.40
2024-03-04T22:29:10.249Z,65.60
2024-03-04T22:31:43.762Z,66.00
2024-03-04T22:34:13.685Z,66.20
2024-03-04T22:36:42.596Z,66.40
2024-03-04T22:39:11.656Z,67.40
2024-03-04T22:41:46.941Z,67.00
2024-03-04T22:44:15.378Z,66.60
2024-03-04T22:46:43.975Z,66.80
2024-03-04T22:49:14.376Z,65.70
2024-03-04T22:51:42.439Z,65.20
2024-03-04T22:54:10.837Z,64.70
2024-03-04T22:56:39.292Z,64.10
2024-03-04T22:59:08.116Z,64.20
2024-03-04T23:01:36.856Z,64.60
2024-03-04T23:04:05.489Z,63.60
2024-03-04T23:06:35.326Z,63.80
2024-03-04T23:09:05.315Z,63.00
2024-03-04T23:11:33.778Z,63.00
2024-03-04T23:14:02.173Z,62.70
2024-03-04T23:16:30.480Z,63.50
2024-03-04T23:18:58.632Z,63.80
2024-03-04T23:21:26.792Z,64.30
2024-03-04T23:23:56.494Z,64.00
2024-03-04T23:26:24.692Z,65.30
2024-03-04T23:28:54.658Z,65.50
2024-03-04T23:31:26.574Z,66.10
2024-03-04T23:33:54.995Z,65.70
2024-03-04T23:36:23.342Z,65.50
2024-03-04T23:38:51.676Z,64.40
2024-03-04T23:41:21.452Z,65.20
2024-03-04T23:43:49.873Z,64.20
2024-03-04T23:46:18.172Z,63.10
2024-03-04T23:48:46.310Z,63.50
2024-03-04T23:51:14.368Z,64.30
2024-03-04T23:53:42.670Z,64.80
2024-03-04T23:56:11.132Z,65.80
2024-03-04T23:58:40.712Z,65.50
